createdAt,value
2018-11-07T00:02:11.506Z,41.27
2018-11-07T00:04:43.974Z,40.60
2018-11-07T00:07:20.238Z,43.03
2018-11-07T00:09:58.631Z,43.70
2018-11-07T00:12:30.423Z,43.70
2018-11-07T00:15:02.187Z,43.20
2018-11-07T00:17:34.231Z,44.60
2018-11-07T00:20:08.836Z,41.53
2018-11-07T00:22:40.887Z,42.08
2018-11-07T00:25:13.191Z,42.83
2018-11-07T00:27:44.961Z,43.33
2018-11-07T00:32:53.223Z,45.57
2018-11-07T00:35:25.067Z,43.33
2018-11-07T00:37:56.969Z,44.38
2018-11-07T00:40:29.430Z,42.15
2018-11-07T00:43:01.280Z,43.05
2018-11-07T00:45:33.308Z,43.43
2018-11-07T00:53:02.181Z,45.23
2018-11-07T00:55:33.738Z,44.60
2018-11-07T00:58:07.131Z,46.10
2018-11-07T01:00:39.715Z,44.83
2018-11-07T01:03:11.466Z,48.07
2018-11-07T01:05:43.296Z,47.73
2018-11-07T01:08:15.768Z,47.55
2018-11-07T01:10:47.447Z,48.40
2018-11-07T01:13:19.565Z,50.00
2018-11-07T01:15:51.443Z,49.15
2018-11-07T01:18:23.404Z,49.15
2018-11-07T01:20:55.090Z,49.70
2018-11-07T01:23:27.022Z,49.13
2018-11-07T01:25:58.910Z,49.70
2018-11-07T01:28:31.281Z,48.80
2018-11-07T01:31:02.960Z,49.98
2018-11-07T01:33:34.923Z,50.43
2018-11-07T01:36:06.455Z,50.08
2018-11-07T01:38:38.138Z,49.80
2018-11-07T01:41:09.874Z,52.25
2018-11-07T01:43:41.794Z,51.45
2018-11-07T01:46:13.713Z,52.63
2018-11-07T01:48:45.727Z,51.35
2018-11-07T01:51:17.516Z,54.83
2018-11-07T01:53:49.315Z,54.10
2018-11-07T01:56:21.157Z,53.05
2018-11-07T01:58:52.805Z,57.00
2018-11-07T02:01:24.541Z,55.70
2018-11-07T02:03:56.670Z,53.33
2018-11-07T02:06:35.027Z,56.13
2018-11-07T02:09:10.338Z,55.40
2018-11-07T02:11:42.875Z,54.67
2018-11-07T02:14:15.043Z,55.12
2018-11-07T02:16:47.201Z,54.80
2018-11-07T02:19:19.420Z,58.33
2018-11-07T02:21:51.711Z,55.57
2018-11-07T02:24:23.698Z,56.33
2018-11-07T02:26:55.282Z,57.40
2018-11-07T02:29:27.411Z,56.47
2018-11-07T02:31:59.377Z,57.90
2018-11-07T02:34:31.228Z,56.63
2018-11-07T02:37:03.715Z,55.55
2018-11-07T02:39:35.588Z,54.90
2018-11-07T02:42:07.329Z,55.78
2018-11-07T02:44:39.886Z,57.30
2018-11-07T02:47:12.094Z,57.38
2018-11-07T02:49:43.926Z,60.20
2018-11-07T02:52:15.464Z,57.98
2018-11-07T02:54:47.753Z,57.08
2018-11-07T02:57:20.171Z,60.03
2018-11-07T02:59:52.474Z,57.90
2018-11-07T03:02:24.166Z,56.28
2018-11-07T03:04:56.406Z,59.27
2018-11-07T03:07:29.444Z,59.13
2018-11-07T03:10:01.279Z,57.73
2018-11-07T03:12:33.145Z,58.20
2018-11-07T03:15:04.855Z,58.25
2018-11-07T03:17:36.736Z,59.18
2018-11-07T03:20:10.971Z,55.98
2018-11-07T03:22:46.048Z,57.07
2018-11-07T03:25:17.892Z,55.37
2018-11-07T03:27:49.655Z,52.47
2018-11-07T03:30:21.521Z,55.07
2018-11-07T03:32:53.271Z,53.23
2018-11-07T03:35:27.570Z,53.50
2018-11-07T03:37:59.988Z,51.73
2018-11-07T03:40:31.835Z,50.98
2018-11-07T03:43:04.150Z,48.35
2018-11-07T03:45:41.110Z,47.88
2018-11-07T03:48:13.956Z,45.50
2018-11-07T03:50:45.874Z,43.10
2018-11-07T03:53:17.638Z,46.50
2018-11-07T03:55:49.592Z,47.00
2018-11-07T03:58:21.420Z,47.80
2018-11-07T04:00:53.643Z,43.17
2018-11-07T04:03:28.676Z,44.77
2018-11-07T04:06:00.370Z,43.63
2018-11-07T04:08:32.650Z,48.67
2018-11-07T04:11:05.215Z,44.20
2018-11-07T04:13:36.889Z,47.73
2018-11-07T04:16:08.858Z,46.48
2018-11-07T04:21:17.223Z,43.97
2018-11-07T04:23:52.918Z,45.57
2018-11-07T04:26:24.677Z,45.40
2018-11-07T04:28:56.641Z,42.55
2018-11-07T04:34:06.305Z,43.37
2018-11-07T04:36:37.789Z,44.23
2018-11-07T04:39:11.214Z,40.25
2018-11-07T04:41:42.899Z,42.62
2018-11-07T04:44:14.788Z,44.93
2018-11-07T04:46:46.392Z,42.48
2018-11-07T04:49:18.231Z,40.70
2018-11-07T04:51:49.789Z,38.80
2018-11-07T04:54:21.468Z,38.30
2018-11-07T04:56:54.179Z,35.93
2018-11-07T04:59:26.346Z,35.10
2018-11-07T05:01:59.091Z,35.78
2018-11-07T05:04:30.813Z,35.63
2018-11-07T05:07:02.559Z,36.65
2018-11-07T05:09:34.484Z,37.73
2018-11-07T05:12:07.409Z,34.50
2018-11-07T05:14:39.140Z,33.87
2018-11-07T05:17:10.845Z,34.45
2018-11-07T05:19:42.834Z,37.43
2018-11-07T05:22:14.794Z,36.25
2018-11-07T05:24:46.533Z,35.20
2018-11-07T05:27:18.416Z,34.55
2018-11-07T05:29:50.079Z,35.70
2018-11-07T05:32:22.051Z,35.90
2018-11-07T05:37:32.005Z,35.20
2018-11-07T05:40:04.380Z,35.60
2018-11-07T05:42:36.256Z,35.43
2018-11-07T05:45:08.720Z,38.08
2018-11-07T05:47:41.428Z,35.40
2018-11-07T05:50:13.117Z,35.55
2018-11-07T05:55:21.577Z,39.27
2018-11-07T05:57:53.682Z,39.53
2018-11-07T06:00:25.650Z,41.03
2018-11-07T06:02:57.582Z,78.50
2018-11-07T06:05:29.466Z,42.60
2018-11-07T06:08:01.382Z,57.83
2018-11-07T06:10:33.205Z,53.53
2018-11-07T06:13:05.215Z,51.67
2018-11-07T06:15:37.465Z,55.33
2018-11-07T06:18:09.417Z,37.30
2018-11-07T06:20:41.396Z,36.67
2018-11-07T06:23:13.879Z,50.78
2018-11-07T06:25:46.345Z,35.68
2018-11-07T06:30:54.696Z,38.33
2018-11-07T06:33:26.513Z,40.90
2018-11-07T06:35:58.271Z,34.43
2018-11-07T06:38:29.968Z,60.33
2018-11-07T06:41:01.715Z,68.67
2018-11-07T06:43:33.218Z,33.27
2018-11-07T06:46:04.784Z,35.15
2018-11-07T06:48:36.421Z,33.43
2018-11-07T06:51:08.077Z,39.50
2018-11-07T06:53:39.556Z,59.83
2018-11-07T06:56:11.357Z,56.12
2018-11-07T06:58:42.987Z,33.42
2018-11-07T07:01:14.907Z,33.55
2018-11-07T07:03:46.561Z,32.28
2018-11-07T07:06:18.192Z,31.10
2018-11-07T07:08:50.227Z,36.03
2018-11-07T07:11:21.989Z,46.60
2018-11-07T07:13:53.571Z,30.23
2018-11-07T07:16:25.129Z,29.47
2018-11-07T07:18:57.282Z,44.38
2018-11-07T07:21:29.599Z,30.37
2018-11-07T07:24:01.404Z,57.23
2018-11-07T07:26:33.318Z,33.73
2018-11-07T07:29:05.305Z,32.33
2018-11-07T07:31:37.082Z,27.15
2018-11-07T07:34:08.893Z,30.12
2018-11-07T07:36:40.632Z,36.63
2018-11-07T07:39:12.352Z,30.15
2018-11-07T07:41:44.107Z,31.97
2018-11-07T07:44:15.818Z,31.25
2018-11-07T07:46:47.680Z,33.35
2018-11-07T07:49:19.433Z,32.48
2018-11-07T07:51:51.266Z,29.70
2018-11-07T07:54:30.009Z,31.80
2018-11-07T07:57:01.675Z,36.33
2018-11-07T07:59:33.257Z,41.13
2018-11-07T08:02:05.934Z,27.62
2018-11-07T08:04:37.526Z,31.10
2018-11-07T08:07:09.819Z,26.87
2018-11-07T08:09:41.630Z,25.53
2018-11-07T08:12:17.457Z,26.37
2018-11-07T08:14:49.049Z,26.87
2018-11-07T08:17:20.854Z,27.30
2018-11-07T08:19:52.619Z,26.02
2018-11-07T08:22:24.461Z,29.57
2018-11-07T08:24:56.456Z,33.45
2018-11-07T08:27:27.982Z,27.53
2018-11-07T08:29:59.752Z,28.00
2018-11-07T08:32:31.546Z,28.35
2018-11-07T08:35:03.268Z,27.52
2018-11-07T08:37:34.917Z,29.27
2018-11-07T08:40:10.807Z,30.00
2018-11-07T08:42:42.583Z,30.08
2018-11-07T08:45:17.848Z,29.47
2018-11-07T08:47:49.442Z,30.00
2018-11-07T08:50:21.781Z,29.07
2018-11-07T08:52:53.347Z,30.48
2018-11-07T08:55:25.010Z,29.57
2018-11-07T08:57:56.553Z,30.75
2018-11-07T09:00:28.308Z,32.10
2018-11-07T09:03:00.367Z,32.13
2018-11-07T09:05:32.695Z,33.80
2018-11-07T09:08:04.398Z,33.05
2018-11-07T09:10:36.092Z,30.57
2018-11-07T09:13:07.712Z,33.18
2018-11-07T09:15:39.267Z,34.53
2018-11-07T09:18:11.295Z,34.67
2018-11-07T09:20:42.916Z,34.77
2018-11-07T09:23:14.526Z,36.53
2018-11-07T09:25:47.325Z,33.75
2018-11-07T09:30:54.700Z,34.00
2018-11-07T09:33:26.298Z,33.80
2018-11-07T09:35:58.279Z,32.57
2018-11-07T09:38:30.099Z,35.07
2018-11-07T09:41:01.787Z,31.82
2018-11-07T09:43:35.973Z,31.17
2018-11-07T09:48:44.629Z,31.70
2018-11-07T09:51:16.162Z,32.95
2018-11-07T09:53:47.880Z,32.63
2018-11-07T09:56:19.464Z,33.90
2018-11-07T09:58:51.167Z,35.03
2018-11-07T10:01:22.946Z,34.10
2018-11-07T10:03:57.525Z,33.93
2018-11-07T10:06:29.092Z,32.83
2018-11-07T10:09:01.151Z,31.35
2018-11-07T10:11:33.105Z,31.75
2018-11-07T10:14:05.376Z,34.50
2018-11-07T10:16:37.146Z,31.97
2018-11-07T10:19:09.213Z,30.12
2018-11-07T10:21:40.711Z,30.43
2018-11-07T10:24:12.253Z,31.48
2018-11-07T10:26:44.903Z,31.10
2018-11-07T10:29:16.988Z,31.02
2018-11-07T10:31:48.262Z,29.48
2018-11-07T10:34:20.356Z,27.87
2018-11-07T10:36:52.092Z,27.33
2018-11-07T10:39:23.812Z,25.95
2018-11-07T10:41:56.089Z,26.97
2018-11-07T10:44:27.862Z,24.93
2018-11-07T10:46:59.300Z,23.70
2018-11-07T10:49:31.682Z,24.10
2018-11-07T10:52:03.931Z,25.05
2018-11-07T10:54:36.065Z,25.30
2018-11-07T10:57:08.735Z,24.98
2018-11-07T10:59:40.501Z,25.68
2018-11-07T11:02:17.241Z,27.13
2018-11-07T11:04:49.339Z,28.30
2018-11-07T11:07:21.100Z,28.10
2018-11-07T11:09:52.787Z,26.23
2018-11-07T11:12:24.846Z,26.95
2018-11-07T11:14:56.499Z,28.38
2018-11-07T11:17:28.026Z,27.87
2018-11-07T11:20:00.102Z,27.77
2018-11-07T11:22:31.566Z,28.10
2018-11-07T11:25:03.309Z,27.52
2018-11-07T11:27:35.183Z,29.57
2018-11-07T11:30:08.424Z,27.85
2018-11-07T11:32:40.742Z,29.73
2018-11-07T11:35:13.059Z,30.35
2018-11-07T11:37:44.481Z,29.17
2018-11-07T11:40:18.860Z,28.55
2018-11-07T11:42:50.707Z,27.22
2018-11-07T11:48:00.564Z,23.33
2018-11-07T11:50:32.054Z,19.80
2018-11-07T11:53:03.567Z,19.55
2018-11-07T11:55:35.234Z,17.70
2018-11-07T11:58:07.093Z,18.32
2018-11-07T12:00:38.779Z,17.47
2018-11-07T12:03:14.008Z,16.47
2018-11-07T12:05:48.133Z,17.52
2018-11-07T12:08:19.665Z,17.02
2018-11-07T12:10:52.228Z,15.60
2018-11-07T12:13:24.003Z,14.95
2018-11-07T12:18:31.770Z,14.77
2018-11-07T12:21:04.031Z,14.75
2018-11-07T12:23:35.615Z,15.98
2018-11-07T12:26:07.274Z,16.65
2018-11-07T12:28:39.367Z,16.40
2018-11-07T12:31:11.664Z,15.83
2018-11-07T12:36:20.198Z,15.67
2018-11-07T12:38:51.777Z,15.88
2018-11-07T12:41:23.339Z,14.83
2018-11-07T12:43:55.758Z,16.10
2018-11-07T12:46:27.481Z,14.80
2018-11-07T12:48:59.428Z,15.53
2018-11-07T12:51:31.110Z,15.08
2018-11-07T12:54:02.995Z,14.70
2018-11-07T12:56:34.578Z,14.87
2018-11-07T12:59:06.766Z,14.55
2018-11-07T13:01:38.486Z,14.70
2018-11-07T13:04:14.232Z,15.30
2018-11-07T13:06:46.001Z,15.25
2018-11-07T13:09:17.615Z,14.63
2018-11-07T13:11:49.602Z,16.70
2018-11-07T13:14:21.622Z,15.35
2018-11-07T13:16:53.530Z,15.15
2018-11-07T13:19:25.083Z,14.53
2018-11-07T13:21:56.737Z,14.73
2018-11-07T13:24:28.189Z,14.73
2018-11-07T13:26:59.851Z,13.08
2018-11-07T13:29:31.485Z,13.80
2018-11-07T13:32:03.381Z,13.88
2018-11-07T13:34:34.904Z,15.03
2018-11-07T13:37:07.054Z,14.85
2018-11-07T13:39:38.711Z,15.30
2018-11-07T13:42:10.295Z,14.70
2018-11-07T13:44:41.926Z,18.05
2018-11-07T13:47:14.284Z,19.20
2018-11-07T13:49:46.465Z,19.00
2018-11-07T13:52:18.861Z,15.45
2018-11-07T13:54:50.660Z,14.95
2018-11-07T13:57:23.045Z,15.20
2018-11-07T14:02:31.359Z,21.60
2018-11-07T14:05:03.190Z,27.87
2018-11-07T14:07:34.765Z,22.20
2018-11-07T14:10:08.977Z,21.37
2018-11-07T14:12:41.330Z,25.95
2018-11-07T14:15:13.851Z,22.43
2018-11-07T14:17:45.712Z,20.85
2018-11-07T14:20:17.728Z,21.70
2018-11-07T14:22:49.859Z,17.37
2018-11-07T14:25:21.631Z,17.95
2018-11-07T14:27:53.426Z,16.82
2018-11-07T14:30:25.248Z,16.47
2018-11-07T14:32:59.715Z,17.05
2018-11-07T14:35:31.410Z,17.53
2018-11-07T14:38:03.039Z,18.90
2018-11-07T14:40:35.996Z,18.63
2018-11-07T14:43:07.761Z,19.10
2018-11-07T14:45:39.460Z,19.63
2018-11-07T14:48:11.271Z,20.17
2018-11-07T14:50:42.717Z,20.20
2018-11-07T14:53:14.208Z,20.10
2018-11-07T14:55:45.915Z,21.82
2018-11-07T14:58:18.472Z,23.38
2018-11-07T15:00:50.033Z,23.30
2018-11-07T15:03:21.841Z,24.15
2018-11-07T15:05:53.282Z,23.80
2018-11-07T15:08:25.257Z,21.53
2018-11-07T15:10:56.843Z,21.95
2018-11-07T15:13:28.470Z,22.07
2018-11-07T15:16:00.325Z,22.37
2018-11-07T15:18:32.872Z,23.00
2018-11-07T15:21:04.510Z,23.80
2018-11-07T15:23:37.060Z,25.17
2018-11-07T15:26:09.869Z,25.15
2018-11-07T15:28:41.831Z,26.52
2018-11-07T15:31:13.351Z,26.20
2018-11-07T15:33:45.592Z,27.60
2018-11-07T15:36:17.214Z,28.60
2018-11-07T15:38:49.310Z,28.40
2018-11-07T15:41:21.890Z,28.67
2018-11-07T15:43:53.650Z,28.90
2018-11-07T15:46:24.983Z,29.37
2018-11-07T15:48:56.709Z,29.50
2018-11-07T15:51:33.381Z,29.50
2018-11-07T15:54:07.939Z,31.00
2018-11-07T15:56:39.598Z,29.50
2018-11-07T15:59:12.713Z,31.00
2018-11-07T16:01:44.118Z,29.70
2018-11-07T16:04:15.717Z,31.60
2018-11-07T16:06:47.324Z,32.30
2018-11-07T16:09:19.632Z,31.57
2018-11-07T16:11:51.431Z,32.47
2018-11-07T16:14:23.071Z,32.15
2018-11-07T16:16:54.473Z,31.57
2018-11-07T16:19:26.535Z,33.23
2018-11-07T16:24:34.453Z,33.43
2018-11-07T16:27:06.593Z,35.78
2018-11-07T16:29:38.230Z,35.37
2018-11-07T16:32:09.807Z,35.80
2018-11-07T16:34:42.155Z,35.10
2018-11-07T16:37:13.945Z,35.20
2018-11-07T16:39:45.498Z,35.57
2018-11-07T16:42:16.837Z,37.20
2018-11-07T16:44:48.359Z,36.50
2018-11-07T16:49:56.749Z,38.03
2018-11-07T16:52:28.173Z,38.00
2018-11-07T16:55:00.024Z,40.67
2018-11-07T16:57:31.646Z,39.80
2018-11-07T17:00:03.543Z,40.33
2018-11-07T17:02:34.995Z,42.13
2018-11-07T17:05:06.870Z,43.55
2018-11-07T17:07:38.520Z,45.87
2018-11-07T17:10:10.951Z,46.90
2018-11-07T17:12:43.158Z,48.02
2018-11-07T17:15:14.744Z,53.42
2018-11-07T17:20:22.731Z,59.83
2018-11-07T17:22:54.178Z,53.53
2018-11-07T17:25:25.995Z,53.87
2018-11-07T17:27:57.363Z,54.40
2018-11-07T17:30:28.764Z,50.13
2018-11-07T17:33:00.435Z,51.73
2018-11-07T17:35:31.986Z,52.13
2018-11-07T17:38:03.825Z,52.37
2018-11-07T17:40:35.200Z,50.65
2018-11-07T17:43:07.124Z,47.95
2018-11-07T17:45:38.681Z,48.93
2018-11-07T17:48:19.514Z,48.90
2018-11-07T17:50:51.757Z,46.65
2018-11-07T17:53:23.167Z,47.30
2018-11-07T17:55:54.575Z,50.60
2018-11-07T17:58:26.375Z,51.47
2018-11-07T18:00:57.860Z,53.08
2018-11-07T18:03:29.296Z,53.50
2018-11-07T18:06:00.903Z,54.30
2018-11-07T18:08:32.383Z,55.07
2018-11-07T18:11:03.977Z,52.10
2018-11-07T18:13:35.800Z,51.93
2018-11-07T18:16:07.976Z,53.70
2018-11-07T18:18:39.847Z,56.00
2018-11-07T18:21:12.526Z,61.73
2018-11-07T18:23:44.185Z,63.67
2018-11-07T18:26:15.767Z,64.58
2018-11-07T18:28:47.495Z,61.13
2018-11-07T18:31:19.089Z,62.25
2018-11-07T18:33:51.062Z,62.62
2018-11-07T18:36:22.744Z,61.47
2018-11-07T18:38:58.455Z,63.30
2018-11-07T18:41:30.664Z,63.42
2018-11-07T18:44:03.717Z,62.00
2018-11-07T18:46:35.826Z,63.68
2018-11-07T18:51:45.034Z,68.03
2018-11-07T18:54:19.026Z,68.28
2018-11-07T18:56:52.517Z,67.83
2018-11-07T18:59:24.097Z,65.03
2018-11-07T19:01:59.945Z,72.20
2018-11-07T19:04:32.894Z,71.67
2018-11-07T19:07:05.344Z,67.55
2018-11-07T19:09:37.842Z,65.50
2018-11-07T19:14:49.668Z,65.20
2018-11-07T19:17:22.566Z,70.03
2018-11-07T19:19:54.147Z,66.02
2018-11-07T19:22:26.519Z,64.40
2018-11-07T19:24:59.736Z,65.78
2018-11-07T19:27:32.017Z,66.17
2018-11-07T19:30:05.120Z,66.37
2018-11-07T19:32:36.854Z,69.63
2018-11-07T19:35:13.270Z,71.30
2018-11-07T19:37:48.146Z,73.37
2018-11-07T19:40:24.042Z,74.55
2018-11-07T19:42:56.840Z,79.93
2018-11-07T19:45:29.145Z,75.47
2018-11-07T19:48:00.754Z,73.47
2018-11-07T19:50:32.350Z,77.60
2018-11-07T19:53:04.686Z,76.73
2018-11-07T19:55:38.574Z,79.43
2018-11-07T19:58:12.483Z,77.30
2018-11-07T20:00:44.489Z,74.27
2018-11-07T20:03:16.786Z,76.50
2018-11-07T20:05:50.141Z,72.65
2018-11-07T20:08:22.691Z,72.67
2018-11-07T20:10:55.689Z,75.33
2018-11-07T20:13:31.723Z,74.43
2018-11-07T20:16:03.969Z,76.47
2018-11-07T20:18:39.004Z,75.20
2018-11-07T20:21:11.719Z,76.93
2018-11-07T20:23:43.682Z,81.32
2018-11-07T20:26:16.241Z,78.78
2018-11-07T20:28:49.554Z,78.43
2018-11-07T20:31:22.093Z,76.43
2018-11-07T20:33:56.977Z,76.40
2018-11-07T20:36:35.257Z,74.67
2018-11-07T20:39:13.952Z,78.50
2018-11-07T20:41:48.233Z,78.52
2018-11-07T20:44:20.229Z,75.55
2018-11-07T20:46:53.418Z,75.75
2018-11-07T20:49:26.090Z,76.23
2018-11-07T20:51:58.840Z,74.80
2018-11-07T20:54:30.891Z,80.97
2018-11-07T20:57:02.313Z,82.00
2018-11-07T20:59:34.977Z,75.13
2018-11-07T21:02:06.810Z,75.52
2018-11-07T21:04:38.513Z,74.00
2018-11-07T21:07:10.256Z,71.43
2018-11-07T21:09:42.539Z,72.90
2018-11-07T21:12:14.791Z,73.25
2018-11-07T21:14:47.206Z,73.35
2018-11-07T21:17:19.482Z,73.97
2018-11-07T21:19:51.047Z,70.77
2018-11-07T21:22:23.124Z,75.37
2018-11-07T21:27:31.614Z,74.57
2018-11-07T21:30:03.605Z,76.53
2018-11-07T21:32:35.691Z,75.97
2018-11-07T21:35:07.631Z,76.00
2018-11-07T21:37:40.075Z,75.97
2018-11-07T21:40:14.639Z,74.53
2018-11-07T21:42:47.373Z,71.77
2018-11-07T21:45:19.202Z,75.55
2018-11-07T21:47:52.087Z,73.70
2018-11-07T21:53:00.838Z,71.03
2018-11-07T21:58:09.511Z,71.47
2018-11-07T22:00:41.047Z,69.87
2018-11-07T22:03:12.657Z,71.33
2018-11-07T22:05:45.131Z,72.80
2018-11-07T22:08:17.024Z,70.62
2018-11-07T22:10:48.911Z,71.43
2018-11-07T22:13:20.619Z,72.30
2018-11-07T22:15:52.260Z,70.27
2018-11-07T22:18:24.005Z,71.53
2018-11-07T22:20:55.521Z,74.70
2018-11-07T22:23:27.366Z,73.47
2018-11-07T22:25:59.503Z,74.25
2018-11-07T22:28:32.819Z,71.73
2018-11-07T22:31:04.424Z,72.20
2018-11-07T22:33:36.115Z,73.77
2018-11-07T22:36:07.753Z,75.08
2018-11-07T22:41:16.276Z,71.47
2018-11-07T22:43:48.041Z,74.87
2018-11-07T22:46:20.539Z,71.37
2018-11-07T22:48:53.863Z,74.97
2018-11-07T22:51:25.535Z,73.23
2018-11-07T22:53:57.320Z,71.50
2018-11-07T22:56:29.527Z,73.80
2018-11-07T22:59:01.284Z,73.75
2018-11-07T23:01:38.055Z,75.10
2018-11-07T23:04:10.763Z,76.75
2018-11-07T23:06:42.485Z,75.87
2018-11-07T23:09:15.060Z,77.37
2018-11-07T23:11:46.906Z,74.23
2018-11-07T23:14:20.213Z,74.77
2018-11-07T23:16:51.909Z,74.40
2018-11-07T23:19:30.101Z,77.15
2018-11-07T23:22:01.935Z,74.70
2018-11-07T23:24:33.965Z,82.07
2018-11-07T23:27:07.047Z,79.17
2018-11-07T23:29:38.874Z,83.63
2018-11-07T23:32:10.450Z,80.70
2018-11-07T23:37:18.864Z,79.77
2018-11-07T23:39:51.190Z,80.03
2018-11-07T23:42:22.951Z,82.40
2018-11-07T23:44:55.213Z,81.45
2018-11-07T23:47:27.018Z,81.67
2018-11-07T23:49:58.496Z,76.47
2018-11-07T23:52:36.040Z,79.77
2018-11-07T23:55:08.614Z,81.15
2018-11-07T23:57:40.259Z,79.97
